Time;durP1;ratioP1;P1;durP2;ratioP2;P2;SDS_P1;SDS_P2;PMS_P1;PMS_P2;Temp;Humidity;BMP_temperature;BMP_pressure;BME280_temperature;BME280_humidity;BME280_pressure;Samples;Min_cycle;Max_cycle;Signal;HPM_P1;HPM_P2
2022/05/24 00:01:10;;;;;;;6.00;1.60;;;20.60;68.40;;;;;;5032561;28;20025;-59
2022/05/24 00:03:36;;;;;;;6.00;1.98;;;20.60;68.40;;;;;;5036683;28;20036;-59
2022/05/24 00:06:02;;;;;;;5.68;2.00;;;20.60;69.40;;;;;;5032798;28;20044;-59
2022/05/24 00:08:27;;;;;;;5.95;2.05;;;20.60;68.40;;;;;;5032141;28;20498;-59
2022/05/24 00:10:54;;;;;;;6.63;2.03;;;20.60;68.40;;;;;;5034974;28;20024;-59
2022/05/24 00:13:20;;;;;;;4.63;1.58;;;20.60;68.40;;;;;;5031778;28;20041;-59
2022/05/24 00:15:46;;;;;;;5.03;1.90;;;20.50;68.30;;;;;;5036475;28;20131;-59
2022/05/24 00:18:16;;;;;;;6.63;1.70;;;20.60;68.50;;;;;;5038860;28;20095;-59
2022/05/24 00:20:44;;;;;;;4.43;1.80;;;20.50;68.40;;;;;;5033063;28;20025;-59
2022/05/24 00:23:09;;;;;;;6.97;1.80;;;20.50;68.30;;;;;;5035739;28;20429;-59
2022/05/24 00:25:37;;;;;;;5.53;1.75;;;20.50;68.40;;;;;;5033790;28;20071;-59
2022/05/24 00:28:04;;;;;;;5.45;1.90;;;20.50;68.30;;;;;;5037152;28;20032;-59
2022/05/24 00:30:29;;;;;;;4.45;1.60;;;20.50;68.30;;;;;;5034147;28;20025;-59
2022/05/24 00:32:55;;;;;;;6.65;1.90;;;20.50;68.40;;;;;;5030604;28;20029;-59
2022/05/24 00:35:21;;;;;;;4.53;1.90;;;20.50;69.50;;;;;;5033681;28;20517;-59
2022/05/24 00:37:47;;;;;;;4.30;1.60;;;20.40;68.30;;;;;;5036327;28;20033;-59
2022/05/24 00:40:50;;;;;;;5.25;1.67;;;20.50;68.40;;;;;;5028055;28;20039;-59
2022/05/24 00:43:20;;;;;;;7.07;1.80;;;20.40;68.50;;;;;;5037449;28;20498;-59
2022/05/24 00:45:47;;;;;;;4.05;1.70;;;20.40;68.50;;;;;;5032139;28;20438;-59
2022/05/24 00:48:26;;;;;;;5.55;1.60;;;20.40;68.40;;;;;;5037735;28;20048;-59
2022/05/24 00:50:51;;;;;;;4.80;1.70;;;20.40;68.40;;;;;;5042878;28;20136;-59
2022/05/24 00:53:21;;;;;;;5.65;2.08;;;20.40;68.40;;;;;;5033537;28;20451;-59
2022/05/24 00:56:02;;;;;;;5.90;1.75;;;20.40;68.40;;;;;;5067188;28;20033;-59
2022/05/24 00:58:53;;;;;;;5.50;1.55;;;20.40;68.40;;;;;;5040765;28;20049;-59
2022/05/24 01:01:37;;;;;;;3.90;1.65;;;20.40;68.40;;;;;;5042134;28;20029;-59
2022/05/24 01:04:03;;;;;;;4.25;1.60;;;20.40;68.50;;;;;;5039248;28;20063;-59
2022/05/24 01:06:29;;;;;;;4.63;1.67;;;20.40;68.40;;;;;;5039091;28;20465;-59
2022/05/24 01:08:55;;;;;;;6.00;1.77;;;20.30;68.50;;;;;;5034840;28;20057;-59
2022/05/24 01:11:21;;;;;;;5.68;1.60;;;20.30;68.40;;;;;;5062142;28;20022;-59
2022/05/24 01:13:47;;;;;;;5.60;1.88;;;20.30;68.40;;;;;;5030695;28;20422;-59
2022/05/24 01:16:13;;;;;;;4.53;1.50;;;20.30;68.40;;;;;;5042453;28;20055;-59
2022/05/24 01:18:38;;;;;;;5.57;1.60;;;20.30;68.30;;;;;;5067743;28;20025;-59
2022/05/24 01:21:08;;;;;;;4.65;1.77;;;20.30;68.40;;;;;;5040658;28;20539;-58
2022/05/24 01:23:59;;;;;;;6.07;1.90;;;20.30;68.40;;;;;;5066281;28;20104;-59
2022/05/24 01:26:49;;;;;;;4.50;1.42;;;20.20;68.30;;;;;;5034138;28;20116;-59
2022/05/24 01:29:15;;;;;;;4.65;1.60;;;20.30;68.40;;;;;;5063917;28;20498;-59
2022/05/24 01:37:10;;;;;;;2.85;1.35;;;20.20;68.40;;;;;;5031020;28;20452;-59
2022/05/24 01:39:35;;;;;;;5.22;1.63;;;20.20;68.30;;;;;;5036211;28;20030;-59
2022/05/24 01:42:01;;;;;;;5.30;1.60;;;20.20;68.30;;;;;;5037000;28;20022;-59
2022/05/24 01:44:46;;;;;;;4.50;1.67;;;20.20;68.30;;;;;;5031878;28;20022;-59
2022/05/24 01:47:12;;;;;;;;;;;20.20;68.30;;;;;;5061002;28;20060;-58
2022/05/24 01:49:40;;;;;;;4.88;1.65;;;20.20;68.30;;;;;;5068228;28;19913;-59
2022/05/24 01:52:18;;;;;;;5.22;1.75;;;20.20;68.30;;;;;;5055402;28;20446;-59
2022/05/24 01:54:47;;;;;;;4.72;1.58;;;20.20;68.30;;;;;;5041999;28;20029;-59
2022/05/24 01:57:20;;;;;;;4.05;1.48;;;20.20;68.40;;;;;;5039404;28;20038;-59
2022/05/24 01:59:47;;;;;;;5.10;1.63;;;20.10;68.30;;;;;;5031177;28;20050;-59
2022/05/24 02:02:13;;;;;;;6.00;1.80;;;20.10;68.20;;;;;;5049146;28;20033;-59
2022/05/24 02:04:38;;;;;;;4.68;1.40;;;20.10;68.30;;;;;;5025303;28;20389;-59
2022/05/24 02:07:04;;;;;;;4.85;1.70;;;20.10;68.20;;;;;;5033857;28;20025;-59
2022/05/24 02:09:30;;;;;;;6.68;1.63;;;20.10;68.30;;;;;;5032394;28;20482;-59
2022/05/24 02:11:58;;;;;;;4.70;1.63;;;20.10;68.20;;;;;;5036115;28;20447;-59
2022/05/24 02:14:26;;;;;;;4.90;1.40;;;20.10;68.20;;;;;;5064856;28;20056;-59
2022/05/24 02:17:00;;;;;;;4.20;1.38;;;20.10;68.20;;;;;;5064014;28;20040;-59
2022/05/24 02:19:26;;;;;;;3.20;1.40;;;20.10;68.20;;;;;;5036822;28;20513;-59
2022/05/24 02:21:55;;;;;;;3.13;1.35;;;20.00;68.10;;;;;;5030022;28;20057;-59
2022/05/24 02:24:22;;;;;;;3.15;1.48;;;20.10;68.20;;;;;;5037809;28;20513;-59
2022/05/24 02:26:49;;;;;;;5.10;1.42;;;20.00;69.30;;;;;;5032418;28;20025;-59
2022/05/24 02:29:16;;;;;;;4.50;1.73;;;20.00;68.10;;;;;;5028662;28;20434;-59
2022/05/24 02:31:42;;;;;;;3.85;1.45;;;20.00;68.20;;;;;;5032587;28;20184;-59
2022/05/24 02:34:08;;;;;;;5.85;1.80;;;20.00;68.20;;;;;;5028961;28;20079;-59
2022/05/24 02:36:34;;;;;;;4.75;1.52;;;20.00;68.20;;;;;;5035968;28;20462;-58
2022/05/24 02:39:00;;;;;;;4.10;1.60;;;20.00;68.20;;;;;;5032828;28;20033;-59
2022/05/24 02:41:28;;;;;;;4.07;1.30;;;20.00;68.20;;;;;;5033336;28;20490;-59
2022/05/24 02:43:58;;;;;;;2.90;1.25;;;20.00;68.10;;;;;;5033696;28;20035;-59
2022/05/24 02:46:24;;;;;;;5.15;1.60;;;20.00;68.10;;;;;;5031357;28;20028;-59
2022/05/24 02:48:50;;;;;;;4.90;1.60;;;20.00;68.20;;;;;;5042365;28;20045;-59
2022/05/24 02:51:16;;;;;;;5.57;1.55;;;20.00;68.10;;;;;;5027596;28;20037;-59
2022/05/24 02:53:42;;;;;;;4.13;1.58;;;19.90;68.10;;;;;;5034531;28;20043;-58
2022/05/24 02:56:08;;;;;;;4.68;1.70;;;19.90;68.10;;;;;;5032735;28;20509;-59
2022/05/24 02:58:34;;;;;;;1.98;1.15;;;19.90;68.10;;;;;;5030615;28;20036;-59
2022/05/24 03:00:59;;;;;;;3.35;1.60;;;19.90;68.10;;;;;;5035023;28;20072;-59
2022/05/24 03:03:25;;;;;;;5.53;1.48;;;19.90;68.10;;;;;;5034850;28;20120;-59
2022/05/24 03:05:51;;;;;;;3.95;1.52;;;19.90;68.10;;;;;;5035788;28;20517;-58
2022/05/24 03:11:01;;;;;;;2.93;1.30;;;19.90;68.10;;;;;;5034514;28;20461;-59
2022/05/24 03:16:13;;;;;;;3.45;1.42;;;19.80;68.10;;;;;;5032828;28;20063;-59
2022/05/24 03:18:39;;;;;;;3.90;1.63;;;19.80;68.20;;;;;;5039709;28;20045;-59
2022/05/24 03:21:05;;;;;;;3.90;1.30;;;19.80;68.10;;;;;;5044483;28;20108;-59
2022/05/24 03:23:31;;;;;;;4.13;1.33;;;19.80;68.10;;;;;;5036251;28;20116;-59
2022/05/24 03:25:57;;;;;;;5.30;1.60;;;19.80;68.00;;;;;;5035722;28;20029;-59
2022/05/24 03:28:22;;;;;;;3.78;1.25;;;19.80;68.00;;;;;;5034870;28;20120;-59
2022/05/24 03:30:48;;;;;;;2.88;1.20;;;19.80;68.00;;;;;;5038249;28;20021;-59
2022/05/24 03:33:14;;;;;;;3.63;1.30;;;19.80;68.10;;;;;;5035771;28;20026;-59
2022/05/24 03:35:40;;;;;;;3.40;1.30;;;19.80;68.00;;;;;;5036586;28;20030;-59
2022/05/24 03:38:06;;;;;;;2.75;1.30;;;19.80;68.10;;;;;;5035527;28;20014;-59
2022/05/24 03:40:32;;;;;;;3.65;1.45;;;19.80;68.00;;;;;;5038219;28;20040;-59
2022/05/24 03:42:57;;;;;;;4.57;1.40;;;19.80;68.20;;;;;;5038479;28;20029;-59
2022/05/24 03:45:23;;;;;;;5.63;1.67;;;19.80;68.10;;;;;;5034840;28;20065;-59
2022/05/24 03:47:49;;;;;;;5.43;1.50;;;19.80;68.00;;;;;;5036084;28;20049;-59
2022/05/24 03:50:15;;;;;;;3.38;1.45;;;19.70;68.00;;;;;;5035308;28;20025;-59
2022/05/24 03:52:40;;;;;;;2.25;1.10;;;19.70;68.00;;;;;;5039473;28;20039;-59
2022/05/24 03:55:06;;;;;;;2.40;1.30;;;19.80;68.10;;;;;;5036694;28;20560;-59
2022/05/24 04:00:18;;;;;;;3.23;1.17;;;19.70;68.00;;;;;;5032200;28;20029;-59
2022/05/24 04:02:44;;;;;;;4.47;1.40;;;19.70;68.10;;;;;;5040446;28;20275;-59
2022/05/24 04:05:10;;;;;;;4.03;1.40;;;19.70;67.90;;;;;;5034594;28;20383;-59
2022/05/24 04:07:36;;;;;;;5.95;1.30;;;19.70;67.90;;;;;;5038527;28;20069;-59
2022/05/24 04:10:03;;;;;;;4.60;1.48;;;19.70;67.90;;;;;;5069368;28;20029;-59
2022/05/24 04:12:28;;;;;;;3.92;1.35;;;19.70;67.90;;;;;;5034622;28;20506;-59
2022/05/24 04:14:55;;;;;;;3.47;1.50;;;19.70;67.90;;;;;;5035269;28;20096;-59
2022/05/24 04:17:20;;;;;;;2.95;1.15;;;19.70;67.90;;;;;;5038520;28;20102;-59
2022/05/24 04:19:47;;;;;;;5.80;1.40;;;19.60;67.90;;;;;;5038226;28;20545;-59
2022/05/24 04:22:13;;;;;;;3.95;1.35;;;19.60;67.90;;;;;;5037188;28;20026;-59
2022/05/24 04:24:38;;;;;;;2.85;1.30;;;19.60;67.90;;;;;;5031295;28;20082;-59
2022/05/24 04:27:05;;;;;;;3.92;1.38;;;19.60;67.90;;;;;;5037798;28;20122;-59
2022/05/24 04:29:31;;;;;;;5.70;1.67;;;19.60;67.90;;;;;;5038326;28;20018;-59
2022/05/24 04:31:57;;;;;;;2.72;1.08;;;19.60;67.90;;;;;;5036896;28;20044;-59
2022/05/24 04:34:24;;;;;;;4.55;1.45;;;19.60;67.90;;;;;;5048801;28;20437;-59
2022/05/24 04:36:50;;;;;;;4.00;1.50;;;19.60;67.80;;;;;;5044873;28;20041;-59
2022/05/24 04:39:17;;;;;;;3.38;1.23;;;19.60;67.80;;;;;;5037969;28;20024;-59
2022/05/24 04:44:27;;;;;;;2.40;1.10;;;19.60;67.90;;;;;;5036827;28;20056;-59
2022/05/24 04:47:08;;;;;;;4.90;1.15;;;19.60;67.90;;;;;;5032082;28;20037;-59
2022/05/24 04:49:34;;;;;;;3.50;1.30;;;19.60;67.80;;;;;;5034037;28;20057;-59
2022/05/24 04:52:00;;;;;;;3.33;1.40;;;19.60;67.90;;;;;;5034184;28;20104;-59
2022/05/24 04:54:26;;;;;;;4.25;1.35;;;19.60;67.80;;;;;;5032904;28;20569;-59
2022/05/24 04:56:51;;;;;;;5.13;1.25;;;19.60;67.70;;;;;;5035479;28;20057;-59
2022/05/24 04:59:17;;;;;;;4.70;1.13;;;19.60;67.60;;;;;;5036735;28;20033;-59
2022/05/24 05:01:43;;;;;;;2.95;1.20;;;19.60;67.60;;;;;;5034376;28;20036;-58
2022/05/24 05:04:09;;;;;;;3.72;1.30;;;19.60;67.60;;;;;;5033263;28;20084;-59
2022/05/24 05:06:35;;;;;;;3.95;1.23;;;19.60;67.60;;;;;;5032620;28;20053;-59
2022/05/24 05:09:01;;;;;;;3.30;1.35;;;19.60;67.60;;;;;;5032950;28;20029;-59
2022/05/24 05:11:26;;;;;;;2.92;1.25;;;19.60;67.90;;;;;;5029407;28;20018;-59
2022/05/24 05:13:52;;;;;;;3.47;1.33;;;19.60;67.90;;;;;;5038765;28;20033;-59
2022/05/24 05:16:18;;;;;;;4.60;1.73;;;19.50;67.90;;;;;;5038574;28;20063;-59
2022/05/24 05:18:44;;;;;;;9.85;1.80;;;19.50;68.10;;;;;;5041157;28;20055;-59
2022/05/24 05:21:10;;;;;;;11.15;2.40;;;19.50;68.60;;;;;;5034440;28;20510;-59
2022/05/24 05:23:35;;;;;;;7.00;1.80;;;19.60;69.50;;;;;;5033813;28;20037;-59
2022/05/24 05:26:01;;;;;;;8.10;1.80;;;19.60;69.20;;;;;;5038937;28;20422;-59
2022/05/24 05:28:26;;;;;;;5.88;1.42;;;19.60;69.10;;;;;;5030703;28;20037;-59
2022/05/24 05:33:36;;;;;;;10.90;2.03;;;19.60;69.20;;;;;;5032915;28;20036;-59
2022/05/24 05:36:03;;;;;;;7.57;1.67;;;19.60;69.10;;;;;;5030776;28;20425;-59
2022/05/24 05:38:29;;;;;;;8.38;1.85;;;19.50;68.90;;;;;;5036655;28;20029;-59
2022/05/24 05:40:55;;;;;;;12.65;1.83;;;19.60;69.00;;;;;;5034541;28;20032;-59
2022/05/24 05:43:21;;;;;;;7.53;1.83;;;19.60;69.00;;;;;;5031946;28;20363;-59
2022/05/24 05:45:54;;;;;;;7.63;1.77;;;19.60;69.20;;;;;;5033657;28;20076;-59
2022/05/24 05:48:20;;;;;;;9.10;1.70;;;19.50;68.80;;;;;;5034641;28;20053;-58
2022/05/24 05:50:47;;;;;;;6.10;1.45;;;19.60;68.80;;;;;;5038429;28;20101;-59
2022/05/24 05:53:13;;;;;;;6.20;1.60;;;19.60;68.90;;;;;;5034675;28;20159;-59
2022/05/24 05:55:41;;;;;;;8.77;1.70;;;19.50;68.60;;;;;;5035356;28;20070;-59
2022/05/24 05:58:07;;;;;;;9.93;1.70;;;19.60;68.80;;;;;;5032350;28;20049;-59
2022/05/24 06:00:32;;;;;;;10.95;1.85;;;19.60;68.90;;;;;;5031564;28;20148;-59
2022/05/24 06:02:58;;;;;;;5.70;1.70;;;19.60;68.80;;;;;;5031098;28;20510;-59
2022/05/24 06:05:24;;;;;;;7.25;2.08;;;19.50;68.80;;;;;;5035472;28;20371;-59
2022/05/24 06:07:49;;;;;;;10.77;1.80;;;19.50;68.90;;;;;;5030843;28;20099;-59
2022/05/24 06:10:15;;;;;;;9.00;1.80;;;19.50;68.80;;;;;;5031240;28;20044;-59
2022/05/24 06:12:41;;;;;;;7.72;1.80;;;19.50;68.70;;;;;;5030208;28;20055;-59
2022/05/24 06:15:07;;;;;;;8.32;1.55;;;19.60;68.80;;;;;;5031879;28;20383;-59
2022/05/24 06:17:33;;;;;;;7.07;1.80;;;19.50;68.70;;;;;;5033694;28;20041;-59
2022/05/24 06:20:01;;;;;;;8.13;1.85;;;19.60;68.60;;;;;;5032168;28;20021;-59
2022/05/24 06:22:27;;;;;;;7.63;1.48;;;19.50;68.80;;;;;;5037081;28;20044;-59
2022/05/24 06:24:53;;;;;;;8.40;1.42;;;19.50;68.70;;;;;;5030573;28;20022;-58
2022/05/24 06:27:20;;;;;;;7.53;1.45;;;19.50;68.70;;;;;;5033084;28;20053;-59
2022/05/24 06:29:46;;;;;;;9.20;1.65;;;19.50;68.70;;;;;;5033792;28;20031;-58
2022/05/24 06:32:12;;;;;;;4.90;1.50;;;19.50;68.50;;;;;;5033065;28;20037;-59
2022/05/24 06:34:37;;;;;;;5.88;1.38;;;19.50;68.50;;;;;;5034562;28;20034;-59
2022/05/24 06:37:03;;;;;;;8.75;2.10;;;19.50;68.80;;;;;;5037754;28;20022;-59
2022/05/24 06:39:29;;;;;;;6.45;1.50;;;19.50;68.60;;;;;;5032051;28;20057;-58
2022/05/24 06:41:55;;;;;;;7.38;1.58;;;19.50;68.60;;;;;;5042592;28;20033;-59
2022/05/24 06:44:21;;;;;;;9.23;1.80;;;19.60;68.60;;;;;;5038592;28;20033;-59
2022/05/24 06:46:46;;;;;;;6.47;1.60;;;19.60;68.60;;;;;;5033291;28;20038;-59
2022/05/24 06:49:12;;;;;;;6.85;1.55;;;19.60;68.60;;;;;;5034344;28;20033;-59
2022/05/24 06:51:38;;;;;;;8.52;1.70;;;19.50;68.60;;;;;;5035514;28;20025;-59
2022/05/24 06:54:04;;;;;;;6.63;1.40;;;19.50;68.50;;;;;;5040599;28;20067;-59
2022/05/24 06:56:29;;;;;;;8.43;1.42;;;19.50;68.50;;;;;;5040285;28;20513;-59
2022/05/24 07:04:25;;;;;;;4.38;1.10;;;19.50;68.50;;;;;;5034003;28;20037;-58
2022/05/24 07:06:50;;;;;;;6.20;1.40;;;19.50;68.50;;;;;;5033443;28;20237;-59
2022/05/24 07:09:16;;;;;;;6.35;1.58;;;19.50;68.40;;;;;;5040434;28;20569;-59
2022/05/24 07:11:42;;;;;;;6.03;1.60;;;19.60;68.50;;;;;;5036771;28;20025;-58
2022/05/24 07:14:07;;;;;;;5.68;1.38;;;19.60;68.50;;;;;;5032580;28;20034;-59
2022/05/24 07:16:33;;;;;;;10.02;1.75;;;19.60;68.50;;;;;;5034012;28;20025;-59
2022/05/24 07:18:59;;;;;;;5.88;1.50;;;19.60;68.60;;;;;;5033986;28;20017;-58
2022/05/24 07:21:24;;;;;;;4.80;1.50;;;19.60;68.60;;;;;;5039503;28;20037;-58
2022/05/24 07:23:51;;;;;;;7.65;1.67;;;19.60;68.60;;;;;;5035428;28;20032;-59
2022/05/24 07:26:17;;;;;;;6.05;1.58;;;19.60;68.60;;;;;;5036521;28;20041;-59
2022/05/24 07:28:43;;;;;;;6.05;1.60;;;19.60;68.70;;;;;;5032807;28;20214;-59
2022/05/24 07:31:09;;;;;;;6.55;1.42;;;19.60;68.70;;;;;;5033993;28;20239;-59
2022/05/24 07:33:35;;;;;;;5.70;1.40;;;19.60;68.80;;;;;;5033283;28;20037;-59
2022/05/24 07:36:01;;;;;;;5.63;1.40;;;19.60;68.50;;;;;;5032819;28;20032;-59
2022/05/24 07:38:26;;;;;;;5.05;1.35;;;19.60;68.70;;;;;;5038397;28;20029;-59
2022/05/24 07:46:23;;;;;;;7.20;1.60;;;19.60;68.30;;;;;;5034036;28;20032;-58
2022/05/24 07:48:48;;;;;;;6.88;1.45;;;19.60;68.70;;;;;;5032328;28;20033;-59
2022/05/24 07:51:14;;;;;;;5.57;1.25;;;19.60;68.70;;;;;;5032503;28;20036;-59
2022/05/24 07:53:39;;;;;;;6.90;1.38;;;19.60;68.50;;;;;;5034320;28;20025;-59
2022/05/24 07:56:05;;;;;;;5.03;1.50;;;19.60;68.70;;;;;;5037018;28;20033;-58
2022/05/24 07:58:31;;;;;;;6.35;1.60;;;19.60;68.80;;;;;;5035074;28;20021;-59
2022/05/24 08:00:57;;;;;;;5.28;1.50;;;19.60;68.60;;;;;;5031048;28;20487;-59
2022/05/24 08:03:23;;;;;;;6.28;1.50;;;19.60;68.50;;;;;;5039353;28;20037;-59
2022/05/24 08:05:48;;;;;;;4.20;1.40;;;19.60;68.70;;;;;;5034933;28;20021;-58
2022/05/24 08:08:14;;;;;;;5.53;1.40;;;19.60;68.80;;;;;;5033333;28;20033;-59
2022/05/24 08:10:40;;;;;;;3.70;1.30;;;19.60;68.80;;;;;;5032948;28;20067;-59
2022/05/24 08:13:08;;;;;;;4.40;1.15;;;19.60;68.60;;;;;;5032926;28;20114;-59
2022/05/24 08:15:34;;;;;;;6.88;1.45;;;19.60;68.80;;;;;;5039015;28;20021;-59
2022/05/24 08:18:00;;;;;;;5.25;1.30;;;19.60;68.70;;;;;;5039324;28;20032;-59
2022/05/24 08:20:25;;;;;;;4.53;1.40;;;19.60;68.80;;;;;;5038899;28;20029;-58
2022/05/24 08:22:51;;;;;;;4.07;1.20;;;19.60;68.80;;;;;;5033861;28;20053;-58
2022/05/24 08:25:17;;;;;;;4.00;1.40;;;19.60;68.60;;;;;;5030975;28;20022;-58
2022/05/24 08:27:43;;;;;;;5.72;1.40;;;19.60;68.50;;;;;;5033064;28;20493;-58
2022/05/24 08:30:11;;;;;;;4.32;1.15;;;19.60;68.40;;;;;;5038599;28;20124;-59
2022/05/24 08:32:36;;;;;;;4.40;1.25;;;19.60;68.60;;;;;;5036646;28;20041;-58
2022/05/24 08:35:02;;;;;;;3.75;1.20;;;19.60;68.60;;;;;;5034113;28;20017;-59
2022/05/24 08:37:29;;;;;;;4.68;1.27;;;19.60;68.60;;;;;;5031391;28;20418;-59
2022/05/24 08:39:57;;;;;;;4.65;1.15;;;19.70;68.60;;;;;;5031657;28;20040;-58
2022/05/24 08:42:27;;;;;;;3.60;1.27;;;19.60;68.60;;;;;;5033803;28;20402;-58
2022/05/24 08:50:37;;;;;;;4.35;1.13;;;19.70;68.40;;;;;;5061345;28;20406;-59
2022/05/24 08:53:05;;;;;;;5.07;1.60;;;19.70;68.40;;;;;;5033432;28;20037;-58
2022/05/24 08:55:32;;;;;;;3.05;1.25;;;19.70;68.40;;;;;;5030063;28;20033;-59
2022/05/24 08:57:58;;;;;;;4.45;1.13;;;19.80;68.40;;;;;;5067689;28;20112;-58
2022/05/24 09:00:34;;;;;;;4.53;1.40;;;19.70;68.40;;;;;;5037298;28;20029;-58
2022/05/24 09:03:02;;;;;;;4.60;1.27;;;19.80;68.40;;;;;;5066646;28;20108;-58
2022/05/24 09:05:40;;;;;;;4.05;1.10;;;19.80;68.40;;;;;;5063776;28;20091;-58
2022/05/24 09:08:26;;;;;;;4.32;1.17;;;19.80;68.40;;;;;;5033387;28;20030;-58
2022/05/24 09:11:29;;;;;;;3.58;1.10;;;19.80;68.30;;;;;;5066236;28;20029;-58
2022/05/24 09:14:11;;;;;;;3.30;1.00;;;19.70;68.30;;;;;;5033239;28;20116;-58
2022/05/24 09:17:09;;;;;;;2.28;1.10;;;19.80;68.30;;;;;;5031511;28;20123;-59
2022/05/24 09:19:35;;;;;;;4.72;1.30;;;19.80;68.30;;;;;;4993235;28;20045;-58
2022/05/24 09:22:04;;;;;;;3.95;1.20;;;19.80;68.30;;;;;;4992438;28;20499;-58
2022/05/24 09:24:48;;;;;;;4.45;1.20;;;19.80;68.30;;;;;;4991972;28;20046;-58
2022/05/24 09:27:22;;;;;;;3.33;1.23;;;19.80;68.30;;;;;;4999083;28;20092;-58
2022/05/24 09:30:25;;;;;;;6.00;1.35;;;19.90;68.20;;;;;;4997044;28;20539;-58
2022/05/24 09:32:51;;;;;;;6.03;1.58;;;19.90;68.10;;;;;;4999402;28;20120;-58
2022/05/24 09:35:16;;;;;;;2.83;1.10;;;19.90;68.10;;;;;;4984319;28;20128;-58
2022/05/24 09:37:43;;;;;;;3.05;1.10;;;19.90;68.10;;;;;;5000980;28;20026;-58
2022/05/24 09:40:22;;;;;;;3.92;1.17;;;19.90;68.00;;;;;;4995113;28;20509;-58
2022/05/24 09:42:48;;;;;;;4.03;1.20;;;19.90;68.00;;;;;;4997024;28;20499;-58
2022/05/24 09:45:16;;;;;;;4.63;1.20;;;19.90;67.90;;;;;;4972137;28;20049;-59
2022/05/24 09:47:45;;;;;;;3.40;1.05;;;19.90;67.90;;;;;;4995161;28;20065;-58
2022/05/24 09:50:33;;;;;;;2.78;1.00;;;20.00;67.90;;;;;;4992899;28;20034;-58
2022/05/24 09:53:16;;;;;;;3.53;0.95;;;19.90;67.80;;;;;;5002393;28;20034;-58
2022/05/24 09:55:47;;;;;;;3.60;1.05;;;20.00;67.90;;;;;;4999869;28;20041;-58
2022/05/24 09:58:34;;;;;;;3.30;1.10;;;20.00;67.80;;;;;;5009808;28;20922;-59
2022/05/24 10:01:07;;;;;;;5.68;1.20;;;20.00;67.70;;;;;;5014726;28;20029;-58
2022/05/24 10:03:37;;;;;;;4.30;1.20;;;20.00;67.70;;;;;;5009816;28;20046;-58
2022/05/24 10:06:32;;;;;;;2.65;1.00;;;20.00;67.70;;;;;;5011377;28;20034;-58
2022/05/24 10:09:19;;;;;;;3.73;1.53;;;20.00;67.60;;;;;;5031068;28;20041;-59
2022/05/24 10:11:55;;;;;;;2.78;1.10;;;20.00;67.60;;;;;;5033692;28;20029;-59
2022/05/24 10:14:33;;;;;;;5.00;1.17;;;20.00;67.60;;;;;;5054610;28;20033;-58
2022/05/24 10:17:31;;;;;;;3.90;1.10;;;20.00;67.40;;;;;;5037573;28;20502;-59
2022/05/24 10:20:10;;;;;;;3.30;0.93;;;20.10;67.50;;;;;;5036530;28;20393;-59
2022/05/24 10:22:43;;;;;;;4.28;1.02;;;20.10;67.40;;;;;;5038298;28;20055;-58
2022/05/24 10:25:21;;;;;;;2.42;1.23;;;20.10;67.50;;;;;;5066004;28;20034;-59
2022/05/24 10:28:04;;;;;;;2.50;0.90;;;20.10;67.50;;;;;;5040219;28;20036;-59
2022/05/24 10:30:37;;;;;;;4.30;1.10;;;20.10;67.40;;;;;;5035565;28;20105;-58
2022/05/24 10:39:34;;;;;;;2.83;1.02;;;20.10;67.30;;;;;;5035913;28;20044;-58
2022/05/24 10:42:09;;;;;;;2.08;0.80;;;20.20;67.20;;;;;;5037268;28;20026;-58
2022/05/24 10:44:37;;;;;;;3.17;1.33;;;20.20;67.30;;;;;;5038406;28;20044;-58
2022/05/24 10:47:27;;;;;;;2.60;1.00;;;20.20;67.30;;;;;;5034475;28;20045;-58
2022/05/24 10:50:00;;;;;;;4.45;1.00;;;20.20;67.20;;;;;;5038714;28;20041;-58
2022/05/24 10:53:01;;;;;;;3.53;1.13;;;20.20;67.10;;;;;;5041543;28;20036;-58
2022/05/24 10:55:40;;;;;;;3.38;0.95;;;20.20;67.10;;;;;;5036301;28;20049;-58
2022/05/24 10:58:09;;;;;;;3.47;1.15;;;20.30;67.10;;;;;;5040605;28;20398;-58
2022/05/24 11:00:44;;;;;;;3.15;1.30;;;20.30;67.10;;;;;;5041849;28;20048;-58
2022/05/24 11:03:12;;;;;;;3.30;0.95;;;20.30;67.00;;;;;;5056416;28;20091;-59
2022/05/24 11:05:43;;;;;;;3.80;1.10;;;20.30;67.00;;;;;;5035945;28;20116;-58
2022/05/24 11:08:33;;;;;;;2.85;0.95;;;20.30;67.00;;;;;;5053403;28;20128;-58
2022/05/24 11:11:15;;;;;;;2.72;0.90;;;20.30;67.00;;;;;;5038295;28;20562;-58
2022/05/24 11:13:44;;;;;;;2.90;1.00;;;20.30;67.00;;;;;;5066417;28;20083;-58
2022/05/24 11:16:17;;;;;;;2.38;0.85;;;20.30;67.10;;;;;;5043459;28;20552;-59
2022/05/24 11:18:42;;;;;;;3.85;0.93;;;20.40;67.00;;;;;;5045209;28;20108;-59
2022/05/24 11:21:28;;;;;;;1.73;0.93;;;20.40;66.90;;;;;;5067968;28;20075;-59
2022/05/24 11:24:05;;;;;;;3.42;1.00;;;20.40;66.80;;;;;;5041810;28;20031;-58
2022/05/24 11:26:33;;;;;;;3.25;1.10;;;20.40;66.90;;;;;;5039333;28;20021;-58
2022/05/24 11:29:18;;;;;;;2.47;1.00;;;20.40;66.70;;;;;;5037221;28;20048;-58
2022/05/24 11:31:51;;;;;;;;;;;20.40;66.70;;;;;;5040925;28;20430;-58
2022/05/24 11:34:25;;;;;;;3.15;0.82;;;20.40;66.70;;;;;;5039211;28;19949;-58
2022/05/24 11:37:13;;;;;;;2.38;0.70;;;20.40;66.60;;;;;;5035306;28;20029;-58
2022/05/24 11:39:40;;;;;;;3.58;1.15;;;20.50;66.70;;;;;;5032469;28;20391;-58
2022/05/24 11:42:28;;;;;;;1.52;0.73;;;20.50;66.60;;;;;;5035515;28;20112;-59
2022/05/24 11:44:54;;;;;;;4.10;1.38;;;20.50;66.50;;;;;;5033626;28;20025;-58
2022/05/24 11:47:35;;;;;;;2.78;1.00;;;20.50;66.40;;;;;;5038466;28;20041;-58
2022/05/24 11:50:28;;;;;;;3.08;0.90;;;20.50;66.50;;;;;;5034754;28;20529;-59
2022/05/24 11:53:19;;;;;;;3.05;0.95;;;20.50;66.40;;;;;;5042069;28;20040;-58
2022/05/24 11:55:54;;;;;;;2.60;0.80;;;20.60;66.40;;;;;;5037177;28;20049;-59
2022/05/24 11:58:22;;;;;;;3.72;1.08;;;20.60;66.30;;;;;;5032982;28;20028;-58
2022/05/24 12:00:57;;;;;;;1.98;0.95;;;20.60;66.20;;;;;;5036027;28;20337;-58
2022/05/24 12:09:14;;;;;;;3.33;0.82;;;20.70;66.10;;;;;;5036425;28;20528;-58
2022/05/24 12:11:39;;;;;;;3.97;0.93;;;20.70;66.10;;;;;;5033594;28;20022;-58
2022/05/24 12:14:35;;;;;;;3.80;0.93;;;20.70;66.20;;;;;;5040074;28;20355;-59
2022/05/24 12:17:01;;;;;;;4.53;1.30;;;20.70;66.10;;;;;;5035646;28;20038;-58
2022/05/24 12:19:38;;;;;;;2.47;1.10;;;20.70;66.10;;;;;;5032061;28;20091;-58
2022/05/24 12:22:07;;;;;;;1.65;0.80;;;20.70;65.90;;;;;;5040728;28;20037;-58
2022/05/24 12:24:49;;;;;;;2.38;1.00;;;20.70;65.90;;;;;;5033928;28;20390;-58
2022/05/24 12:27:33;;;;;;;2.53;0.90;;;20.70;65.90;;;;;;5034049;28;20419;-58
2022/05/24 12:30:13;;;;;;;3.55;0.98;;;20.80;66.10;;;;;;5035502;28;20048;-58
2022/05/24 12:32:41;;;;;;;3.03;0.90;;;20.80;65.90;;;;;;5032320;28;20486;-58
2022/05/24 12:35:09;;;;;;;1.75;0.82;;;20.80;65.90;;;;;;5034154;28;20045;-58
2022/05/24 12:37:37;;;;;;;3.08;0.90;;;20.80;65.90;;;;;;5038003;28;20044;-58
2022/05/24 12:40:17;;;;;;;3.40;1.00;;;20.90;65.90;;;;;;5038859;28;20033;-58
2022/05/24 12:42:50;;;;;;;2.35;0.90;;;20.90;65.90;;;;;;5030030;28;20524;-58
2022/05/24 12:45:40;;;;;;;3.10;0.80;;;20.90;65.80;;;;;;5035233;28;20021;-58
2022/05/24 12:48:22;;;;;;;1.92;0.70;;;20.90;65.80;;;;;;5024611;28;20056;-58
2022/05/24 12:50:48;;;;;;;3.15;1.00;;;20.90;65.80;;;;;;5069623;28;20406;-58
2022/05/24 12:53:19;;;;;;;3.42;0.80;;;21.00;65.70;;;;;;5032833;28;20083;-58
2022/05/24 12:55:58;;;;;;;2.47;0.75;;;21.00;65.50;;;;;;5041736;28;20068;-58
2022/05/24 12:58:31;;;;;;;4.65;1.10;;;21.00;65.60;;;;;;5042741;28;20037;-58
2022/05/24 13:01:10;;;;;;;2.55;0.80;;;21.00;65.50;;;;;;5032664;28;20036;-58
2022/05/24 13:03:36;;;;;;;3.80;1.00;;;21.00;65.50;;;;;;5032209;28;20383;-58
2022/05/24 13:06:02;;;;;;;2.72;0.82;;;21.00;65.80;;;;;;5043077;28;20032;-58
2022/05/24 13:08:28;;;;;;;3.05;1.00;;;21.10;65.50;;;;;;5031509;28;20038;-58
2022/05/24 13:10:54;;;;;;;3.08;0.82;;;21.10;65.40;;;;;;5032663;28;20025;-59
2022/05/24 13:13:21;;;;;;;2.72;0.90;;;21.10;65.30;;;;;;5038835;28;20578;-58
2022/05/24 13:15:56;;;;;;;2.88;0.90;;;21.10;65.20;;;;;;5035425;28;20017;-59
2022/05/24 13:18:21;;;;;;;;;;;21.10;65.30;;;;;;5036190;28;20209;-58
2022/05/24 13:20:48;;;;;;;3.42;0.80;;;21.20;65.20;;;;;;5033479;28;20509;-59
2022/05/24 13:23:16;;;;;;;2.65;0.90;;;21.20;65.10;;;;;;5040238;28;20028;-58
2022/05/24 13:25:57;;;;;;;4.63;0.80;;;21.20;65.10;;;;;;5029978;28;20029;-58
2022/05/24 13:28:35;;;;;;;1.38;0.65;;;21.20;65.10;;;;;;5032069;28;20120;-58
2022/05/24 13:33:54;;;;;;;1.83;0.75;;;21.30;65.00;;;;;;5036088;28;20052;-58
2022/05/24 13:36:30;;;;;;;5.10;0.90;;;21.30;64.90;;;;;;5040137;28;20029;-58
2022/05/24 13:39:02;;;;;;;2.45;0.70;;;21.30;64.90;;;;;;5039337;28;20037;-58
2022/05/24 13:41:39;;;;;;;2.83;0.90;;;21.30;64.90;;;;;;5034329;28;20024;-58
2022/05/24 13:44:20;;;;;;;3.45;0.88;;;21.30;64.70;;;;;;5058118;28;20111;-58
2022/05/24 13:46:50;;;;;;;3.28;0.80;;;21.30;64.60;;;;;;5031968;28;20120;-58
2022/05/24 13:49:27;;;;;;;3.85;1.10;;;21.40;64.50;;;;;;5031466;28;20415;-58
2022/05/24 13:51:53;;;;;;;3.13;1.05;;;21.40;64.60;;;;;;5030851;28;20037;-58
2022/05/24 13:54:32;;;;;;;2.45;0.60;;;21.40;64.50;;;;;;5035408;28;20090;-59